createdAt,value
2019-03-20T00:00:34.523Z,0
2019-03-20T00:01:45.465Z,0
2019-03-20T00:02:34.260Z,0
2019-03-20T00:03:34.974Z,0
2019-03-20T00:04:33.731Z,0
2019-03-20T00:05:34.466Z,0
2019-03-20T00:06:34.206Z,0
2019-03-20T00:07:33.971Z,0
2019-03-20T00:08:34.200Z,0
2019-03-20T00:09:34.215Z,0
2019-03-20T00:10:34.185Z,0
2019-03-20T00:11:34.193Z,0
2019-03-20T00:12:33.894Z,0
2019-03-20T00:13:33.888Z,0
2019-03-20T00:14:34.153Z,0
2019-03-20T00:15:33.872Z,0
2019-03-20T00:16:34.127Z,0
2019-03-20T00:17:33.873Z,0
2019-03-20T00:18:33.892Z,0
2019-03-20T00:19:34.072Z,0
2019-03-20T00:20:33.820Z,0
2019-03-20T00:21:33.815Z,0
2019-03-20T00:22:33.792Z,0
2019-03-20T00:23:33.788Z,0
2019-03-20T00:24:34.024Z,0
2019-03-20T00:25:33.558Z,0
2019-03-20T00:26:34.272Z,0
2019-03-20T00:27:34.036Z,0
2019-03-20T00:28:33.980Z,0
2019-03-20T00:29:34.218Z,0
2019-03-20T00:30:33.479Z,0
2019-03-20T00:31:33.728Z,0
2019-03-20T00:32:33.944Z,0
2019-03-20T00:33:36.394Z,0
2019-03-20T00:34:33.676Z,0
2019-03-20T00:35:33.749Z,0
2019-03-20T00:36:33.653Z,0
2019-03-20T00:37:33.385Z,0
2019-03-20T00:38:33.886Z,0
2019-03-20T00:39:33.863Z,0
2019-03-20T00:40:34.105Z,0
2019-03-20T00:41:33.599Z,0
2019-03-20T00:42:35.411Z,0
2019-03-20T00:43:33.851Z,0
2019-03-20T00:44:33.827Z,0
2019-03-20T00:45:33.828Z,0
2019-03-20T00:46:33.543Z,0
2019-03-20T00:47:33.533Z,0
2019-03-20T00:48:33.093Z,0
2019-03-20T00:49:33.775Z,0
2019-03-20T00:50:33.522Z,0
2019-03-20T00:51:33.237Z,0
2019-03-20T00:52:33.547Z,0
2019-03-20T00:53:33.453Z,0
2019-03-20T00:54:33.460Z,0
2019-03-20T00:55:33.706Z,0
2019-03-20T00:56:33.198Z,0
2019-03-20T00:57:33.665Z,0
2019-03-20T00:58:33.908Z,0
2019-03-20T00:59:33.913Z,0
2019-03-20T01:00:33.400Z,0
2019-03-20T01:01:33.670Z,0
2019-03-20T01:02:33.359Z,0
2019-03-20T01:03:33.608Z,0
2019-03-20T01:04:33.834Z,0
2019-03-20T01:05:33.836Z,0
2019-03-20T01:06:33.334Z,0
2019-03-20T01:07:33.559Z,0
2019-03-20T01:08:33.313Z,0
2019-03-20T01:09:33.302Z,0
2019-03-20T01:10:33.300Z,0
2019-03-20T01:11:33.534Z,0
2019-03-20T01:12:33.539Z,0
2019-03-20T01:13:33.491Z,0
2019-03-20T01:14:33.548Z,0
2019-03-20T01:15:32.996Z,0
2019-03-20T01:16:33.219Z,0
2019-03-20T01:17:32.952Z,0
2019-03-20T01:18:32.724Z,0
2019-03-20T01:19:33.447Z,0
2019-03-20T01:20:32.930Z,0
2019-03-20T01:21:33.433Z,0
2019-03-20T01:22:33.395Z,0
2019-03-20T01:23:33.395Z,0
2019-03-20T01:24:34.185Z,0
2019-03-20T01:25:35.037Z,0
2019-03-20T01:26:32.856Z,0
2019-03-20T01:27:33.619Z,0
2019-03-20T01:28:33.096Z,0
2019-03-20T01:29:33.581Z,0
2019-03-20T01:30:33.596Z,0
2019-03-20T01:31:33.325Z,0
2019-03-20T01:32:33.297Z,0
2019-03-20T01:33:33.034Z,0
2019-03-20T01:34:33.039Z,0
2019-03-20T01:35:33.861Z,0
2019-03-20T01:36:32.767Z,0
2019-03-20T01:37:33.568Z,0
2019-03-20T01:38:32.977Z,0
2019-03-20T01:39:32.729Z,0
2019-03-20T01:40:33.202Z,0
2019-03-20T01:41:42.407Z,0
2019-03-20T01:42:33.227Z,0
2019-03-20T01:43:32.924Z,0
2019-03-20T01:44:33.968Z,0
2019-03-20T01:45:33.160Z,0
2019-03-20T01:46:33.152Z,0
2019-03-20T01:47:32.887Z,0
2019-03-20T01:48:32.877Z,0
2019-03-20T01:49:32.893Z,0
2019-03-20T01:50:32.352Z,0
2019-03-20T01:51:32.891Z,0
2019-03-20T01:52:33.074Z,0
2019-03-20T01:53:32.808Z,0
2019-03-20T01:54:32.563Z,0
2019-03-20T01:55:33.051Z,0
2019-03-20T01:56:32.555Z,0
2019-03-20T01:57:33.052Z,0
2019-03-20T01:58:32.776Z,0
2019-03-20T01:59:32.992Z,0
2019-03-20T02:00:33.001Z,0
2019-03-20T02:01:32.973Z,0
2019-03-20T02:02:32.750Z,0
2019-03-20T02:03:33.226Z,0
2019-03-20T02:04:33.241Z,0
2019-03-20T02:05:44.156Z,0
2019-03-20T02:06:32.689Z,0
2019-03-20T02:07:32.672Z,0
2019-03-20T02:08:32.915Z,0
2019-03-20T02:09:32.687Z,0
2019-03-20T02:10:32.385Z,0
2019-03-20T02:11:32.878Z,0
2019-03-20T02:12:32.604Z,0
2019-03-20T02:13:32.640Z,0
2019-03-20T02:14:32.563Z,0
2019-03-20T02:15:44.760Z,0
2019-03-20T02:16:32.580Z,0
2019-03-20T02:17:32.805Z,0
2019-03-20T02:18:32.304Z,0
2019-03-20T02:19:32.285Z,0
2019-03-20T02:20:32.284Z,0
2019-03-20T02:21:32.785Z,0
2019-03-20T02:22:32.242Z,0
2019-03-20T02:23:32.489Z,0
2019-03-20T02:24:32.215Z,0
2019-03-20T02:25:34.484Z,0
2019-03-20T02:26:32.449Z,0
2019-03-20T02:27:32.220Z,0
2019-03-20T02:28:32.275Z,0
2019-03-20T02:29:32.217Z,0
2019-03-20T02:30:32.422Z,0
2019-03-20T02:31:32.913Z,0
2019-03-20T02:32:32.391Z,0
2019-03-20T02:33:32.654Z,0
2019-03-20T02:34:32.630Z,0
2019-03-20T02:35:32.132Z,0
2019-03-20T02:36:32.874Z,0
2019-03-20T02:37:32.375Z,0
2019-03-20T02:38:32.627Z,0
2019-03-20T02:39:32.311Z,0
2019-03-20T02:40:32.581Z,0
2019-03-20T02:41:32.321Z,0
2019-03-20T02:42:32.556Z,0
2019-03-20T02:43:32.566Z,0
2019-03-20T02:44:32.748Z,0
2019-03-20T02:45:32.754Z,0
2019-03-20T02:46:32.255Z,0
2019-03-20T02:47:32.464Z,0
2019-03-20T02:48:32.479Z,0
2019-03-20T02:49:33.515Z,0
2019-03-20T02:50:32.694Z,0
2019-03-20T02:51:32.771Z,0
2019-03-20T02:52:32.656Z,0
2019-03-20T02:53:32.404Z,0
2019-03-20T02:54:32.404Z,0
2019-03-20T02:55:32.389Z,0
2019-03-20T02:56:32.616Z,0
2019-03-20T02:57:32.618Z,0
2019-03-20T02:58:32.116Z,0
2019-03-20T02:59:32.354Z,0
2019-03-20T03:00:32.603Z,0
2019-03-20T03:01:32.590Z,0
2019-03-20T03:02:32.289Z,0
2019-03-20T03:03:32.281Z,0
2019-03-20T03:04:32.541Z,0
2019-03-20T03:05:32.513Z,0
2019-03-20T03:06:32.013Z,0
2019-03-20T03:07:31.989Z,0
2019-03-20T03:08:32.036Z,0
2019-03-20T03:09:32.465Z,0
2019-03-20T03:10:32.517Z,0
2019-03-20T03:11:32.212Z,0
2019-03-20T03:12:32.176Z,0
2019-03-20T03:13:32.183Z,0
2019-03-20T03:14:31.658Z,0
2019-03-20T03:15:32.401Z,0
2019-03-20T03:16:32.394Z,0
2019-03-20T03:17:31.875Z,0
2019-03-20T03:18:32.127Z,0
2019-03-20T03:19:32.149Z,0
2019-03-20T03:20:32.120Z,0
2019-03-20T03:21:32.339Z,0
2019-03-20T03:22:32.068Z,0
2019-03-20T03:23:32.303Z,0
2019-03-20T03:24:32.284Z,0
2019-03-20T03:25:32.091Z,0
2019-03-20T03:26:32.040Z,0
2019-03-20T03:27:32.134Z,0
2019-03-20T03:28:31.999Z,0
2019-03-20T03:29:32.247Z,0
2019-03-20T03:30:32.004Z,0
2019-03-20T03:31:32.008Z,0
2019-03-20T03:32:31.827Z,0
2019-03-20T03:33:32.150Z,0
2019-03-20T03:34:32.178Z,0
2019-03-20T03:35:31.673Z,0
2019-03-20T03:36:31.721Z,0
2019-03-20T03:37:31.908Z,0
2019-03-20T03:38:31.692Z,0
2019-03-20T03:39:31.850Z,0
2019-03-20T03:40:31.623Z,0
2019-03-20T03:41:32.107Z,0
2019-03-20T03:42:31.839Z,0
2019-03-20T03:43:33.709Z,0
2019-03-20T03:44:31.895Z,0
2019-03-20T03:45:31.809Z,0
2019-03-20T03:46:31.288Z,0
2019-03-20T03:47:31.794Z,0
2019-03-20T03:48:31.541Z,0
2019-03-20T03:49:31.808Z,0
2019-03-20T03:50:32.090Z,0
2019-03-20T03:51:31.734Z,0
2019-03-20T03:52:32.004Z,0
2019-03-20T03:53:31.952Z,0
2019-03-20T03:54:31.759Z,0
2019-03-20T03:55:31.679Z,0
2019-03-20T03:56:31.909Z,0
2019-03-20T03:57:31.678Z,0
2019-03-20T03:58:35.171Z,0
2019-03-20T03:59:31.375Z,0
2019-03-20T04:00:31.418Z,0
2019-03-20T04:01:31.955Z,0
2019-03-20T04:02:31.837Z,0
2019-03-20T04:03:31.596Z,0
2019-03-20T04:04:31.844Z,0
2019-03-20T04:05:33.670Z,0
2019-03-20T04:06:44.756Z,0
2019-03-20T04:07:33.201Z,0
2019-03-20T04:08:31.755Z,0
2019-03-20T04:09:31.787Z,0
2019-03-20T04:10:31.742Z,0
2019-03-20T04:11:31.290Z,0
2019-03-20T04:12:31.295Z,0
2019-03-20T04:13:31.201Z,0
2019-03-20T04:14:31.442Z,0
2019-03-20T04:15:31.186Z,0
2019-03-20T04:16:31.661Z,0
2019-03-20T04:17:31.689Z,0
2019-03-20T04:18:31.637Z,0
2019-03-20T04:19:31.642Z,0
2019-03-20T04:20:31.382Z,0
2019-03-20T04:21:31.127Z,0
2019-03-20T04:22:31.364Z,0
2019-03-20T04:23:31.425Z,0
2019-03-20T04:24:31.572Z,0
2019-03-20T04:25:31.062Z,0
2019-03-20T04:26:31.560Z,0
2019-03-20T04:27:31.130Z,0
2019-03-20T04:28:31.576Z,0
2019-03-20T04:29:31.284Z,0
2019-03-20T04:30:31.248Z,0
2019-03-20T04:31:31.502Z,0
2019-03-20T04:32:31.224Z,0
2019-03-20T04:33:31.234Z,0
2019-03-20T04:34:31.449Z,0
2019-03-20T04:35:31.512Z,0
2019-03-20T04:36:31.443Z,0
2019-03-20T04:37:31.180Z,0
2019-03-20T04:38:31.156Z,0
2019-03-20T04:39:30.926Z,0
2019-03-20T04:40:31.130Z,0
2019-03-20T04:41:31.118Z,0
2019-03-20T04:42:31.484Z,0
2019-03-20T04:43:31.213Z,0
2019-03-20T04:44:31.086Z,0
2019-03-20T04:45:31.354Z,0
2019-03-20T04:46:30.802Z,0
2019-03-20T04:47:31.039Z,0
2019-03-20T04:48:30.535Z,0
2019-03-20T04:49:31.022Z,0
2019-03-20T04:50:30.501Z,0
2019-03-20T04:51:30.749Z,0
2019-03-20T04:52:31.237Z,0
2019-03-20T04:53:30.790Z,0
2019-03-20T04:54:30.992Z,0
2019-03-20T04:55:30.973Z,0
2019-03-20T04:56:30.983Z,0
2019-03-20T04:57:30.435Z,0
2019-03-20T04:58:31.169Z,0
2019-03-20T04:59:31.189Z,0
2019-03-20T05:00:30.916Z,0
2019-03-20T05:01:30.383Z,0
2019-03-20T05:02:30.615Z,0
2019-03-20T05:03:30.600Z,0
2019-03-20T05:04:30.821Z,0
2019-03-20T05:05:30.589Z,0
2019-03-20T05:06:34.081Z,0
2019-03-20T05:07:30.570Z,0
2019-03-20T05:08:30.528Z,0
2019-03-20T05:09:30.816Z,0
2019-03-20T05:10:30.520Z,0
2019-03-20T05:11:30.775Z,0
2019-03-20T05:12:30.482Z,0
2019-03-20T05:13:30.732Z,0
2019-03-20T05:14:30.473Z,0
2019-03-20T05:15:30.453Z,0
2019-03-20T05:16:30.701Z,0
2019-03-20T05:17:30.179Z,0
2019-03-20T05:18:30.455Z,0
2019-03-20T05:19:30.654Z,0
2019-03-20T05:20:30.638Z,0
2019-03-20T05:21:30.631Z,0
2019-03-20T05:22:30.393Z,5
2019-03-20T05:23:30.082Z,5
2019-03-20T05:24:30.333Z,5
2019-03-20T05:25:30.639Z,5
2019-03-20T05:26:30.320Z,5
2019-03-20T05:27:30.558Z,5
2019-03-20T05:28:30.288Z,10
2019-03-20T05:29:30.545Z,10
2019-03-20T05:30:30.278Z,10
2019-03-20T05:31:30.265Z,10
2019-03-20T05:32:30.302Z,10
2019-03-20T05:33:30.488Z,15
2019-03-20T05:34:30.245Z,15
2019-03-20T05:35:30.233Z,15
2019-03-20T05:36:30.214Z,15
2019-03-20T05:37:30.431Z,15
2019-03-20T05:38:30.186Z,20
2019-03-20T05:39:29.952Z,20
2019-03-20T05:40:30.412Z,20
2019-03-20T05:41:30.412Z,25
2019-03-20T05:42:30.483Z,25
2019-03-20T05:43:30.131Z,25
2019-03-20T05:44:30.343Z,25
2019-03-20T05:45:30.339Z,30
2019-03-20T05:46:30.344Z,30
2019-03-20T05:47:30.072Z,30
2019-03-20T05:48:29.816Z,35
2019-03-20T05:49:30.055Z,35
2019-03-20T05:50:30.518Z,35
2019-03-20T05:51:29.799Z,40
2019-03-20T05:52:30.257Z,40
2019-03-20T05:53:29.987Z,45
2019-03-20T05:54:30.283Z,45
2019-03-20T05:55:29.987Z,45
2019-03-20T05:56:29.947Z,50
2019-03-20T05:57:29.965Z,50
2019-03-20T05:58:30.171Z,55
2019-03-20T05:59:30.477Z,55
2019-03-20T06:00:30.618Z,55
2019-03-20T06:01:30.172Z,55
2019-03-20T06:02:32.639Z,60
2019-03-20T06:03:29.880Z,60
2019-03-20T06:04:29.876Z,60
2019-03-20T06:05:29.871Z,60
2019-03-20T06:06:29.866Z,65
2019-03-20T06:07:31.331Z,65
2019-03-20T06:08:31.286Z,65
2019-03-20T06:09:29.822Z,70
2019-03-20T06:10:30.064Z,70
2019-03-20T06:11:30.282Z,75
2019-03-20T06:12:30.290Z,75
2019-03-20T06:13:29.999Z,75
2019-03-20T06:14:29.757Z,75
2019-03-20T06:15:31.789Z,80
2019-03-20T06:16:30.008Z,80
2019-03-20T06:17:29.954Z,80
2019-03-20T06:18:30.209Z,80
2019-03-20T06:19:29.952Z,80
2019-03-20T06:20:29.455Z,80
2019-03-20T06:21:29.703Z,85
2019-03-20T06:22:31.642Z,85
2019-03-20T06:23:29.396Z,85
2019-03-20T06:24:29.893Z,85
2019-03-20T06:25:30.523Z,90
2019-03-20T06:26:30.116Z,90
2019-03-20T06:27:29.865Z,90
2019-03-20T06:28:29.581Z,90
2019-03-20T06:29:29.626Z,90
2019-03-20T06:30:30.088Z,90
2019-03-20T06:31:30.041Z,95
2019-03-20T06:32:29.547Z,95
2019-03-20T06:33:29.567Z,95
2019-03-20T06:34:29.794Z,95
2019-03-20T06:35:29.805Z,100
2019-03-20T06:36:30.819Z,100
2019-03-20T06:37:39.604Z,100
2019-03-20T06:38:29.729Z,100
2019-03-20T06:39:29.209Z,100
2019-03-20T06:40:29.470Z,100
2019-03-20T06:41:29.432Z,100
2019-03-20T06:42:29.434Z,100
2019-03-20T06:43:29.925Z,105
2019-03-20T06:44:29.198Z,105
2019-03-20T06:45:29.687Z,105
2019-03-20T06:46:29.705Z,105
2019-03-20T06:47:29.132Z,110
2019-03-20T06:48:29.114Z,110
2019-03-20T06:49:29.615Z,110
2019-03-20T06:50:29.114Z,110
2019-03-20T06:51:29.336Z,115
2019-03-20T06:52:29.318Z,120
2019-03-20T06:53:29.331Z,120
2019-03-20T06:54:29.048Z,125
2019-03-20T06:55:29.779Z,125
2019-03-20T06:56:29.285Z,125
2019-03-20T06:57:29.272Z,130
2019-03-20T06:58:29.312Z,130
2019-03-20T06:59:29.014Z,130
2019-03-20T07:00:29.013Z,135
2019-03-20T07:01:29.476Z,140
2019-03-20T07:02:29.542Z,140
2019-03-20T07:03:28.995Z,140
2019-03-20T07:04:29.698Z,140
2019-03-20T07:05:29.433Z,150
2019-03-20T07:06:29.203Z,155
2019-03-20T07:07:30.523Z,155
2019-03-20T07:08:29.141Z,160
2019-03-20T07:09:29.423Z,175
2019-03-20T07:10:29.632Z,180
2019-03-20T07:11:29.627Z,185
2019-03-20T07:12:29.355Z,190
2019-03-20T07:13:29.346Z,200
2019-03-20T07:14:29.607Z,200
2019-03-20T07:15:28.848Z,205
2019-03-20T07:16:29.632Z,210
2019-03-20T07:17:29.327Z,210
2019-03-20T07:18:29.560Z,215
2019-03-20T07:19:29.316Z,215
2019-03-20T07:20:28.804Z,215
2019-03-20T07:21:29.570Z,220
2019-03-20T07:22:29.607Z,220
2019-03-20T07:23:29.308Z,220
2019-03-20T07:24:28.807Z,220
2019-03-20T07:25:28.786Z,225
2019-03-20T07:26:31.128Z,225
2019-03-20T07:27:29.288Z,225
2019-03-20T07:28:29.285Z,230
2019-03-20T07:29:29.338Z,230
2019-03-20T07:30:29.315Z,230
2019-03-20T07:31:29.296Z,235
2019-03-20T07:32:30.101Z,235
2019-03-20T07:33:29.531Z,235
2019-03-20T07:34:29.255Z,235
2019-03-20T07:35:29.277Z,240
2019-03-20T07:36:29.268Z,240
2019-03-20T07:37:29.400Z,245
2019-03-20T07:38:29.502Z,245
2019-03-20T07:39:28.979Z,245
2019-03-20T07:40:28.741Z,245
2019-03-20T07:41:29.292Z,250
2019-03-20T07:42:29.255Z,250
2019-03-20T07:43:31.835Z,250
2019-03-20T07:44:29.030Z,250
2019-03-20T07:45:29.253Z,250
2019-03-20T07:46:28.985Z,250
2019-03-20T07:47:29.241Z,250
2019-03-20T07:48:31.843Z,250
2019-03-20T07:49:28.747Z,250
2019-03-20T07:50:29.502Z,250
2019-03-20T07:51:29.507Z,250
2019-03-20T07:52:29.532Z,250
2019-03-20T07:53:28.974Z,250
2019-03-20T07:54:28.980Z,250
2019-03-20T07:55:28.489Z,250
2019-03-20T07:56:28.780Z,250
2019-03-20T07:57:29.230Z,250
2019-03-20T07:58:29.265Z,250
2019-03-20T07:59:28.968Z,250
2019-03-20T08:00:28.981Z,250
2019-03-20T08:01:29.443Z,250
2019-03-20T08:02:29.257Z,250
2019-03-20T08:03:29.235Z,250
2019-03-20T08:04:29.052Z,250
2019-03-20T08:05:38.198Z,250
2019-03-20T08:06:29.238Z,250
2019-03-20T08:07:29.478Z,250
2019-03-20T08:08:28.969Z,250
2019-03-20T08:09:30.608Z,250
2019-03-20T08:10:29.245Z,245
2019-03-20T08:11:29.462Z,245
2019-03-20T08:12:29.002Z,245
2019-03-20T08:13:28.998Z,245
2019-03-20T08:14:29.459Z,245
2019-03-20T08:15:29.033Z,245
2019-03-20T08:16:28.470Z,240
2019-03-20T08:17:29.221Z,245
2019-03-20T08:18:29.238Z,245
2019-03-20T08:19:29.214Z,245
2019-03-20T08:20:28.717Z,240
2019-03-20T08:21:29.218Z,240
2019-03-20T08:22:28.983Z,240
2019-03-20T08:23:28.981Z,240
2019-03-20T08:24:29.244Z,240
2019-03-20T08:25:29.242Z,235
2019-03-20T08:26:28.733Z,235
2019-03-20T08:27:29.464Z,235
2019-03-20T08:28:28.984Z,235
2019-03-20T08:29:29.208Z,235
2019-03-20T08:30:29.017Z,230
2019-03-20T08:31:29.480Z,230
2019-03-20T08:32:29.270Z,225
2019-03-20T08:33:29.254Z,225
2019-03-20T08:34:28.980Z,225
2019-03-20T08:35:29.478Z,225
2019-03-20T08:36:29.014Z,225
2019-03-20T08:37:29.473Z,225
2019-03-20T08:38:29.501Z,225
2019-03-20T08:39:28.993Z,225
2019-03-20T08:40:30.740Z,230
2019-03-20T08:41:28.964Z,225
2019-03-20T08:42:29.327Z,225
2019-03-20T08:43:29.059Z,225
2019-03-20T08:44:29.323Z,230
2019-03-20T08:45:29.226Z,230
2019-03-20T08:46:29.299Z,230
2019-03-20T08:48:35.776Z,230
2019-03-20T08:49:29.323Z,230
2019-03-20T08:50:29.055Z,230
2019-03-20T08:51:29.241Z,230
2019-03-20T08:52:29.231Z,235
2019-03-20T08:53:28.970Z,235
2019-03-20T08:54:28.993Z,235
2019-03-20T08:55:29.090Z,235
2019-03-20T08:56:29.001Z,235
2019-03-20T08:57:35.735Z,235
2019-03-20T08:58:28.994Z,235
2019-03-20T08:59:29.214Z,235
2019-03-20T09:00:29.343Z,240
2019-03-20T09:01:37.785Z,245
2019-03-20T09:02:29.234Z,240
2019-03-20T09:03:29.169Z,240
2019-03-20T09:04:28.881Z,240
2019-03-20T09:05:28.979Z,245
2019-03-20T09:06:28.866Z,240
2019-03-20T09:07:28.860Z,240
2019-03-20T09:08:38.706Z,240
2019-03-20T09:09:28.629Z,240
2019-03-20T09:10:28.680Z,240
2019-03-20T09:11:28.623Z,240
2019-03-20T09:12:29.224Z,240
2019-03-20T09:13:29.197Z,240
2019-03-20T09:14:28.679Z,240
2019-03-20T09:15:29.294Z,240
2019-03-20T09:16:29.814Z,235
2019-03-20T09:17:29.398Z,235
2019-03-20T09:18:29.111Z,235
2019-03-20T09:19:28.799Z,235
2019-03-20T09:20:28.616Z,235
2019-03-20T09:21:29.047Z,235
2019-03-20T09:22:29.049Z,235
2019-03-20T09:23:28.799Z,235
2019-03-20T09:24:28.778Z,235
2019-03-20T09:25:28.846Z,235
2019-03-20T09:26:28.546Z,235
2019-03-20T09:27:28.274Z,235
2019-03-20T09:28:28.766Z,240
2019-03-20T09:29:38.476Z,230
2019-03-20T09:30:28.856Z,230
2019-03-20T09:31:29.014Z,230
2019-03-20T09:32:29.254Z,230
2019-03-20T09:33:29.054Z,230
2019-03-20T09:34:28.754Z,230
2019-03-20T09:35:28.989Z,230
2019-03-20T09:36:28.778Z,230
2019-03-20T09:37:28.968Z,230
2019-03-20T09:38:28.716Z,230
2019-03-20T09:39:28.718Z,230
2019-03-20T09:40:30.679Z,230
2019-03-20T09:41:28.206Z,230
2019-03-20T09:42:28.926Z,230
2019-03-20T09:43:29.178Z,230
2019-03-20T09:44:28.677Z,230
2019-03-20T09:45:29.217Z,225
2019-03-20T09:46:29.165Z,225
2019-03-20T09:47:29.166Z,225
2019-03-20T09:48:28.663Z,225
2019-03-20T09:49:28.649Z,225
2019-03-20T09:50:29.194Z,225
2019-03-20T09:51:28.917Z,225
2019-03-20T09:52:28.881Z,225
2019-03-20T09:53:28.630Z,225
2019-03-20T09:54:28.611Z,225
2019-03-20T09:55:28.945Z,225
2019-03-20T09:56:28.909Z,225
2019-03-20T09:57:28.838Z,225
2019-03-20T09:58:28.587Z,225
2019-03-20T09:59:28.837Z,225
2019-03-20T10:00:29.175Z,225
2019-03-20T10:01:29.070Z,225
2019-03-20T10:02:28.819Z,225
2019-03-20T10:03:29.093Z,220
2019-03-20T10:04:28.826Z,220
2019-03-20T10:05:29.144Z,220
2019-03-20T10:06:30.207Z,225
2019-03-20T10:07:29.051Z,220
2019-03-20T10:08:29.047Z,225
2019-03-20T10:09:28.807Z,225
2019-03-20T10:10:29.147Z,225
2019-03-20T10:11:29.138Z,220
2019-03-20T10:12:29.108Z,220
2019-03-20T10:13:28.660Z,220
2019-03-20T10:14:28.600Z,220
2019-03-20T10:15:28.596Z,220
2019-03-20T10:16:29.064Z,220
2019-03-20T10:17:28.528Z,220
2019-03-20T10:18:29.090Z,215
2019-03-20T10:19:29.082Z,215
2019-03-20T10:21:01.005Z,215
2019-03-20T10:22:00.834Z,215
2019-03-20T10:22:28.515Z,215
2019-03-20T10:23:29.014Z,215
2019-03-20T10:24:28.294Z,210
2019-03-20T10:25:28.784Z,210
2019-03-20T10:26:28.515Z,215
2019-03-20T10:27:29.025Z,215
2019-03-20T10:28:28.694Z,215
2019-03-20T10:29:28.742Z,215
2019-03-20T10:30:28.839Z,215
2019-03-20T10:31:28.486Z,215
2019-03-20T10:32:28.772Z,220
2019-03-20T10:33:28.705Z,215
2019-03-20T10:34:38.916Z,215
2019-03-20T10:35:28.466Z,210
2019-03-20T10:36:28.961Z,210
2019-03-20T10:37:29.017Z,210
2019-03-20T10:38:28.970Z,210
2019-03-20T10:39:28.991Z,210
2019-03-20T10:40:29.019Z,210
2019-03-20T10:41:28.732Z,210
2019-03-20T10:42:28.751Z,210
2019-03-20T10:43:28.997Z,210
2019-03-20T10:44:28.967Z,210
2019-03-20T10:45:29.160Z,210
2019-03-20T10:46:29.002Z,210
2019-03-20T10:47:28.998Z,210
2019-03-20T10:48:28.738Z,210
2019-03-20T10:49:28.970Z,210
2019-03-20T10:50:30.730Z,210
2019-03-20T10:51:28.449Z,210
2019-03-20T10:52:28.959Z,210
2019-03-20T10:53:28.451Z,210
2019-03-20T10:54:28.951Z,210
2019-03-20T10:55:28.702Z,210
2019-03-20T10:56:28.958Z,210
2019-03-20T10:57:28.664Z,210
2019-03-20T10:58:29.026Z,210
2019-03-20T10:59:28.665Z,210
2019-03-20T11:00:28.263Z,210
2019-03-20T11:01:28.932Z,210
2019-03-20T11:02:28.653Z,210
2019-03-20T11:03:28.676Z,210
2019-03-20T11:04:28.916Z,210
2019-03-20T11:05:28.709Z,210
2019-03-20T11:06:28.913Z,210
2019-03-20T11:07:28.418Z,210
2019-03-20T11:08:28.689Z,210
2019-03-20T11:09:28.650Z,210
2019-03-20T11:10:28.456Z,210
2019-03-20T11:11:36.978Z,210
2019-03-20T11:12:28.369Z,210
2019-03-20T11:13:28.873Z,205
2019-03-20T11:14:28.614Z,205
2019-03-20T11:15:29.776Z,205
2019-03-20T11:16:28.625Z,205
2019-03-20T11:17:28.633Z,205
2019-03-20T11:18:28.857Z,205
2019-03-20T11:19:28.147Z,205
2019-03-20T11:20:28.454Z,205
2019-03-20T11:21:28.317Z,205
2019-03-20T11:22:28.987Z,205
2019-03-20T11:23:28.341Z,205
2019-03-20T11:24:28.573Z,200
2019-03-20T11:25:28.374Z,200
2019-03-20T11:26:28.569Z,200
2019-03-20T11:27:33.395Z,200
2019-03-20T11:28:28.820Z,200
2019-03-20T11:29:31.504Z,200
2019-03-20T11:30:28.819Z,205
2019-03-20T11:31:28.560Z,200
2019-03-20T11:32:28.564Z,205
2019-03-20T11:33:28.303Z,200
2019-03-20T11:34:28.564Z,195
2019-03-20T11:35:28.387Z,195
2019-03-20T11:36:28.265Z,200
2019-03-20T11:37:28.534Z,195
2019-03-20T11:38:28.513Z,195
2019-03-20T11:39:38.635Z,195
2019-03-20T11:40:28.250Z,195
2019-03-20T11:41:28.253Z,195
2019-03-20T11:42:27.977Z,195
2019-03-20T11:43:28.487Z,195
2019-03-20T11:44:28.240Z,195
2019-03-20T11:45:30.883Z,195
2019-03-20T11:46:28.229Z,195
2019-03-20T11:47:28.211Z,195
2019-03-20T11:48:27.966Z,195
2019-03-20T11:49:28.222Z,195
2019-03-20T11:50:28.528Z,195
2019-03-20T11:51:28.469Z,195
2019-03-20T11:52:28.470Z,190
2019-03-20T11:53:28.495Z,190
2019-03-20T11:54:28.744Z,190
2019-03-20T11:55:28.536Z,190
2019-03-20T11:56:28.715Z,190
2019-03-20T11:57:31.338Z,190
2019-03-20T11:58:28.183Z,190
2019-03-20T11:59:28.194Z,190
2019-03-20T12:00:28.584Z,190
2019-03-20T12:01:28.689Z,190
2019-03-20T12:02:37.427Z,190
2019-03-20T12:03:28.437Z,190
2019-03-20T12:04:28.656Z,190
2019-03-20T12:05:28.189Z,190
2019-03-20T12:06:27.884Z,190
2019-03-20T12:07:27.882Z,190
2019-03-20T12:08:29.649Z,190
2019-03-20T12:09:28.385Z,190
2019-03-20T12:10:28.397Z,190
2019-03-20T12:11:28.258Z,190
2019-03-20T12:12:28.692Z,190
2019-03-20T12:13:28.188Z,190
2019-03-20T12:14:28.373Z,190
2019-03-20T12:15:28.749Z,190
2019-03-20T12:16:27.841Z,190
2019-03-20T12:17:29.686Z,190
2019-03-20T12:18:28.347Z,190
2019-03-20T12:19:28.103Z,190
2019-03-20T12:20:28.681Z,190
2019-03-20T12:21:28.346Z,190
2019-03-20T12:22:28.343Z,185
2019-03-20T12:23:28.328Z,185
2019-03-20T12:24:28.319Z,185
2019-03-20T12:25:28.125Z,185
2019-03-20T12:26:28.314Z,185
2019-03-20T12:27:28.593Z,185
2019-03-20T12:28:28.623Z,185
2019-03-20T12:29:27.782Z,190
2019-03-20T12:30:28.637Z,185
2019-03-20T12:31:28.291Z,185
2019-03-20T12:32:28.332Z,190
2019-03-20T12:33:27.769Z,185
2019-03-20T12:34:29.345Z,185
2019-03-20T12:35:28.287Z,190
2019-03-20T12:36:28.009Z,185
2019-03-20T12:37:27.753Z,185
2019-03-20T12:38:28.544Z,185
2019-03-20T12:39:27.754Z,180
2019-03-20T12:40:28.281Z,180
2019-03-20T12:41:27.497Z,180
2019-03-20T12:42:28.007Z,180
2019-03-20T12:43:28.334Z,180
2019-03-20T12:44:28.055Z,180
2019-03-20T12:45:27.997Z,180
2019-03-20T12:46:40.841Z,180
2019-03-20T12:47:27.971Z,180
2019-03-20T12:48:28.227Z,180
2019-03-20T12:49:28.239Z,180
2019-03-20T12:50:27.702Z,175
2019-03-20T12:51:27.707Z,175
2019-03-20T12:52:28.466Z,175
2019-03-20T12:53:28.248Z,175
2019-03-20T12:54:27.448Z,175
2019-03-20T12:55:30.908Z,175
2019-03-20T12:56:27.687Z,175
2019-03-20T12:57:27.946Z,175
2019-03-20T12:58:28.201Z,175
2019-03-20T12:59:28.463Z,175
2019-03-20T13:00:29.963Z,175
2019-03-20T13:01:28.177Z,175
2019-03-20T13:02:28.171Z,175
2019-03-20T13:03:27.983Z,175
2019-03-20T13:04:28.168Z,175
2019-03-20T13:05:28.162Z,170
2019-03-20T13:06:27.390Z,170
2019-03-20T13:07:28.142Z,170
2019-03-20T13:08:28.146Z,170
2019-03-20T13:09:28.962Z,170
2019-03-20T13:10:28.169Z,170
2019-03-20T13:11:27.933Z,170
2019-03-20T13:12:28.125Z,170
2019-03-20T13:13:28.223Z,170
2019-03-20T13:14:27.869Z,170
2019-03-20T13:15:27.973Z,170
2019-03-20T13:16:27.869Z,170
2019-03-20T13:17:27.882Z,170
2019-03-20T13:18:28.107Z,165
2019-03-20T13:19:27.611Z,165
2019-03-20T13:20:27.435Z,165
2019-03-20T13:21:27.609Z,165
2019-03-20T13:22:27.841Z,165
2019-03-20T13:23:28.349Z,165
2019-03-20T13:24:27.362Z,165
2019-03-20T13:25:28.154Z,165
2019-03-20T13:26:28.322Z,165
2019-03-20T13:27:27.826Z,165
2019-03-20T13:28:27.818Z,165
2019-03-20T13:29:28.355Z,165
2019-03-20T13:30:29.507Z,165
2019-03-20T13:31:27.803Z,165
2019-03-20T13:32:28.055Z,165
2019-03-20T13:33:35.076Z,165
2019-03-20T13:34:28.051Z,165
2019-03-20T13:35:28.059Z,165
2019-03-20T13:36:27.778Z,165
2019-03-20T13:37:27.555Z,165
2019-03-20T13:38:28.052Z,165
2019-03-20T13:39:28.031Z,165
2019-03-20T13:40:28.047Z,165
2019-03-20T13:41:28.036Z,165
2019-03-20T13:42:27.512Z,165
2019-03-20T13:43:27.740Z,165
2019-03-20T13:44:27.496Z,165
2019-03-20T13:45:27.999Z,165
2019-03-20T13:46:27.782Z,165
2019-03-20T13:47:27.759Z,165
2019-03-20T13:48:28.000Z,165
2019-03-20T13:49:28.265Z,165
2019-03-20T13:50:28.238Z,165
2019-03-20T13:51:27.717Z,165
2019-03-20T13:52:27.709Z,165
2019-03-20T13:53:27.777Z,165
2019-03-20T13:54:27.698Z,165
2019-03-20T13:55:28.262Z,165
2019-03-20T13:56:27.693Z,165
2019-03-20T13:57:27.435Z,170
2019-03-20T13:58:27.937Z,160
2019-03-20T13:59:27.701Z,160
2019-03-20T14:00:28.003Z,160
2019-03-20T14:01:28.203Z,160
2019-03-20T14:02:28.170Z,160
2019-03-20T14:03:27.925Z,165
2019-03-20T14:04:27.927Z,160
2019-03-20T14:05:28.305Z,160
2019-03-20T14:06:28.007Z,160
2019-03-20T14:07:27.910Z,160
2019-03-20T14:08:27.378Z,160
2019-03-20T14:09:27.908Z,165
2019-03-20T14:10:34.456Z,160
2019-03-20T14:11:27.648Z,160